Time;durP1;ratioP1;P1;durP2;ratioP2;P2;SDS_P1;SDS_P2;PMS_P1;PMS_P2;Temp;Humidity;BMP_temperature;BMP_pressure;BME280_temperature;BME280_humidity;BME280_pressure;Samples;Min_cycle;Max_cycle;Signal;HPM_P1;HPM_P2
2023/05/25 00:00:35;;;;;;;31.02;20.23;;;;;;;;;;5025870;28;20109;-81
2023/05/25 00:03:02;;;;;;;37.97;19.77;;;;;;;;;;5012112;28;20037;-82
2023/05/25 00:05:28;;;;;;;36.10;18.80;;;;;;;;;;5012010;28;20069;-82
2023/05/25 00:07:54;;;;;;;21.77;15.07;;;;;;;;;;5009256;28;20066;-80
2023/05/25 00:10:21;;;;;;;15.80;14.10;;;;;;;;;;5008860;28;20038;-79
2023/05/25 00:12:47;;;;;;;14.40;13.05;;;;;;;;;;5008268;28;20046;-81
2023/05/25 00:15:13;;;;;;;16.45;13.52;;;;;;;;;;5025996;28;20041;-81
2023/05/25 00:17:40;;;;;;;20.58;13.15;;;;;;;;;;5008338;28;20037;-80
2023/05/25 00:20:07;;;;;;;28.15;15.20;;;;;;;;;;4973975;28;20045;-80
2023/05/25 00:22:37;;;;;;;21.40;15.10;;;;;;;;;;5020285;28;20068;-80
2023/05/25 00:25:03;;;;;;;20.40;16.50;;;;;;;;;;5034359;28;20050;-80
2023/05/25 00:27:31;;;;;;;32.80;20.95;;;;;;;;;;5026513;28;20117;-81
2023/05/25 00:29:57;;;;;;;25.48;16.40;;;;;;;;;;5046063;28;20041;-79
2023/05/25 00:32:24;;;;;;;32.13;21.27;;;;;;;;;;5032170;28;20129;-77
2023/05/25 00:34:50;;;;;;;35.80;20.00;;;;;;;;;;5001355;28;20072;-81
2023/05/25 00:37:16;;;;;;;28.15;19.27;;;;;;;;;;5010790;28;20061;-83
2023/05/25 00:39:42;;;;;;;27.30;18.23;;;;;;;;;;5027666;28;20052;-81
2023/05/25 00:42:09;;;;;;;20.25;17.10;;;;;;;;;;5013696;28;20037;-83
2023/05/25 00:44:35;;;;;;;25.95;18.23;;;;;;;;;;5011442;28;20037;-81
2023/05/25 00:47:03;;;;;;;26.70;18.20;;;;;;;;;;5030499;28;20134;-82
2023/05/25 00:49:35;;;;;;;28.33;17.50;;;;;;;;;;5046111;28;20053;-81
2023/05/25 00:52:01;;;;;;;24.48;16.23;;;;;;;;;;5000168;28;20070;-79
2023/05/25 00:54:27;;;;;;;23.25;16.50;;;;;;;;;;5003642;28;20465;-79
2023/05/25 00:57:02;;;;;;;25.77;16.00;;;;;;;;;;5022270;28;20425;-80
2023/05/25 00:59:39;;;;;;;23.80;16.67;;;;;;;;;;5028138;28;20111;-80
2023/05/25 01:02:09;;;;;;;18.95;14.23;;;;;;;;;;5002427;28;20045;-81
2023/05/25 01:04:44;;;;;;;28.77;19.60;;;;;;;;;;5001174;28;20129;-79
2023/05/25 01:07:11;;;;;;;37.67;22.38;;;;;;;;;;4985629;28;20053;-80
2023/05/25 01:09:38;;;;;;;32.88;23.13;;;;;;;;;;5000812;28;20076;-80
2023/05/25 01:12:05;;;;;;;29.33;20.38;;;;;;;;;;5018567;28;20431;-82
2023/05/25 01:14:31;;;;;;;24.55;17.80;;;;;;;;;;5001884;28;20092;-80
2023/05/25 01:16:57;;;;;;;27.67;16.33;;;;;;;;;;4986225;28;20429;-81
2023/05/25 01:19:24;;;;;;;26.85;16.50;;;;;;;;;;5020885;28;20128;-81
2023/05/25 01:21:53;;;;;;;22.17;17.33;;;;;;;;;;4988545;28;20041;-81
2023/05/25 01:24:29;;;;;;;20.70;15.82;;;;;;;;;;5004380;28;20045;-82
2023/05/25 01:27:18;;;;;;;31.38;17.63;;;;;;;;;;5005638;28;20054;-80
2023/05/25 01:29:44;;;;;;;22.75;17.95;;;;;;;;;;5005168;28;20134;-79
2023/05/25 01:32:11;;;;;;;41.03;24.38;;;;;;;;;;5027266;28;20046;-80
2023/05/25 01:34:37;;;;;;;32.63;22.40;;;;;;;;;;5006457;28;20526;-80
2023/05/25 01:37:04;;;;;;;44.38;25.85;;;;;;;;;;5024293;28;20062;-81
2023/05/25 01:39:33;;;;;;;50.58;26.77;;;;;;;;;;4991316;28;20426;-81
2023/05/25 01:42:00;;;;;;;43.83;21.15;;;;;;;;;;5008953;28;20042;-81
2023/05/25 01:44:26;;;;;;;37.42;23.65;;;;;;;;;;5007278;28;20458;-81
2023/05/25 01:46:54;;;;;;;29.48;21.27;;;;;;;;;;5021883;28;20062;-81
2023/05/25 01:49:27;;;;;;;28.30;20.77;;;;;;;;;;5005048;28;20042;-81
2023/05/25 01:52:02;;;;;;;25.30;21.02;;;;;;;;;;4989266;28;20089;-81
2023/05/25 01:54:31;;;;;;;34.20;24.90;;;;;;;;;;4987259;28;20039;-81
2023/05/25 01:56:57;;;;;;;34.35;20.08;;;;;;;;;;5007349;28;20042;-81
2023/05/25 01:59:24;;;;;;;38.65;24.38;;;;;;;;;;4977715;28;20046;-78
2023/05/25 02:01:51;;;;;;;41.35;24.83;;;;;;;;;;4994315;28;20104;-80
2023/05/25 02:04:20;;;;;;;29.42;24.33;;;;;;;;;;4994665;28;20663;-81
2023/05/25 02:06:55;;;;;;;38.45;27.45;;;;;;;;;;4990715;28;20053;-80
2023/05/25 02:09:21;;;;;;;47.20;28.83;;;;;;;;;;4990530;28;20074;-81
2023/05/25 02:11:48;;;;;;;36.08;29.67;;;;;;;;;;5006484;28;20133;-82
2023/05/25 02:14:14;;;;;;;27.90;23.70;;;;;;;;;;4990969;28;20039;-81
2023/05/25 02:16:40;;;;;;;36.13;28.00;;;;;;;;;;5007340;28;20072;-82
2023/05/25 02:19:06;;;;;;;46.65;31.27;;;;;;;;;;5008524;28;20030;-81
2023/05/25 02:21:32;;;;;;;35.75;31.10;;;;;;;;;;4989091;28;20046;-80
2023/05/25 02:23:59;;;;;;;42.38;22.38;;;;;;;;;;5005728;28;20054;-81
2023/05/25 02:26:26;;;;;;;43.05;27.13;;;;;;;;;;5007437;28;20050;-81
2023/05/25 02:28:52;;;;;;;40.40;24.40;;;;;;;;;;4991447;28;20061;-81
2023/05/25 02:31:18;;;;;;;35.28;20.10;;;;;;;;;;4990596;28;20120;-81
2023/05/25 02:33:46;;;;;;;20.42;17.33;;;;;;;;;;4987995;28;20030;-81
2023/05/25 02:36:12;;;;;;;30.88;20.63;;;;;;;;;;5005661;28;20114;-80
2023/05/25 02:38:38;;;;;;;17.10;15.30;;;;;;;;;;4990826;28;20030;-82
2023/05/25 02:41:05;;;;;;;16.67;15.07;;;;;;;;;;5008024;28;20085;-81
2023/05/25 02:43:31;;;;;;;17.90;16.08;;;;;;;;;;4989512;28;20038;-81
2023/05/25 02:45:58;;;;;;;16.20;13.52;;;;;;;;;;4975530;28;20581;-81
2023/05/25 02:48:24;;;;;;;16.15;14.30;;;;;;;;;;4979765;28;20045;-80
2023/05/25 02:50:50;;;;;;;15.07;12.32;;;;;;;;;;4997750;28;20077;-82
2023/05/25 02:53:16;;;;;;;24.13;17.98;;;;;;;;;;5000507;28;20045;-81
2023/05/25 02:55:42;;;;;;;23.88;15.75;;;;;;;;;;5048422;28;20056;-81
2023/05/25 02:58:12;;;;;;;21.38;14.88;;;;;;;;;;5028823;28;20105;-81
2023/05/25 03:01:03;;;;;;;19.00;13.38;;;;;;;;;;5006112;28;20537;-81
2023/05/25 03:03:30;;;;;;;18.13;14.27;;;;;;;;;;4977446;28;20579;-82
2023/05/25 03:05:57;;;;;;;21.35;15.30;;;;;;;;;;4994228;28;20115;-82
2023/05/25 03:08:23;;;;;;;27.00;16.75;;;;;;;;;;4992236;28;20043;-80
2023/05/25 03:10:49;;;;;;;25.17;15.73;;;;;;;;;;4998572;28;20042;-81
2023/05/25 03:13:16;;;;;;;19.42;15.68;;;;;;;;;;4995465;28;20057;-81
2023/05/25 03:15:42;;;;;;;18.98;15.60;;;;;;;;;;4991711;28;20087;-81
2023/05/25 03:18:09;;;;;;;19.38;14.13;;;;;;;;;;5022545;28;20042;-81
2023/05/25 03:20:37;;;;;;;20.10;15.98;;;;;;;;;;4982982;28;20049;-80
2023/05/25 03:23:03;;;;;;;24.70;17.38;;;;;;;;;;5001487;28;20107;-79
2023/05/25 03:25:30;;;;;;;21.95;16.83;;;;;;;;;;4990275;28;20050;-81
2023/05/25 03:27:57;;;;;;;21.10;14.45;;;;;;;;;;5007884;28;20042;-80
2023/05/25 03:30:24;;;;;;;28.23;14.98;;;;;;;;;;4987131;28;20064;-79
2023/05/25 03:32:51;;;;;;;19.00;14.70;;;;;;;;;;4987669;28;20037;-80
2023/05/25 03:35:17;;;;;;;19.25;14.60;;;;;;;;;;4990725;28;20580;-82
2023/05/25 03:37:44;;;;;;;17.52;14.00;;;;;;;;;;5003122;28;20058;-80
2023/05/25 03:40:10;;;;;;;22.67;16.55;;;;;;;;;;5004887;28;20026;-79
2023/05/25 03:42:37;;;;;;;20.17;15.52;;;;;;;;;;5007304;28;20477;-80
2023/05/25 03:45:03;;;;;;;34.95;19.67;;;;;;;;;;4997696;28;20033;-81
2023/05/25 03:47:32;;;;;;;30.23;24.00;;;;;;;;;;5012962;28;20038;-81
2023/05/25 03:49:57;;;;;;;32.40;25.40;;;;;;;;;;5009162;28;20087;-83
2023/05/25 03:52:24;;;;;;;40.35;32.20;;;;;;;;;;4990948;28;20046;-81
2023/05/25 03:54:50;;;;;;;41.53;37.13;;;;;;;;;;5021932;28;20048;-82
2023/05/25 03:57:16;;;;;;;52.13;38.63;;;;;;;;;;4988448;28;20057;-79
2023/05/25 03:59:42;;;;;;;44.00;34.30;;;;;;;;;;5018736;28;20049;-82
2023/05/25 04:02:08;;;;;;;37.72;31.45;;;;;;;;;;4984715;28;20038;-82
2023/05/25 04:04:34;;;;;;;34.88;21.65;;;;;;;;;;4986286;28;20116;-81
2023/05/25 04:07:00;;;;;;;34.83;23.13;;;;;;;;;;5000177;28;20050;-82
2023/05/25 04:09:26;;;;;;;35.35;23.20;;;;;;;;;;5015975;28;20049;-81
2023/05/25 04:11:52;;;;;;;42.70;24.30;;;;;;;;;;4981587;28;20057;-81
2023/05/25 04:14:20;;;;;;;34.72;22.98;;;;;;;;;;4997100;28;20069;-83
2023/05/25 04:16:47;;;;;;;49.03;25.42;;;;;;;;;;5001083;28;20049;-81
2023/05/25 04:19:14;;;;;;;39.50;22.67;;;;;;;;;;4989195;28;20065;-81
2023/05/25 04:21:41;;;;;;;39.78;22.98;;;;;;;;;;4991750;28;20597;-83
2023/05/25 04:24:07;;;;;;;34.28;22.40;;;;;;;;;;4986938;28;20046;-82
2023/05/25 04:26:33;;;;;;;37.83;24.02;;;;;;;;;;4990946;28;20062;-82
2023/05/25 04:29:02;;;;;;;30.10;19.10;;;;;;;;;;4990679;28;20532;-82
2023/05/25 04:31:54;;;;;;;32.92;18.67;;;;;;;;;;4974909;28;20053;-82
2023/05/25 04:34:35;;;;;;;32.17;19.80;;;;;;;;;;5008389;28;20046;-83
2023/05/25 04:37:07;;;;;;;30.40;20.73;;;;;;;;;;4992226;28;20265;-81
2023/05/25 04:39:35;;;;;;;33.27;18.93;;;;;;;;;;4999382;28;20038;-82
2023/05/25 04:42:03;;;;;;;30.77;19.98;;;;;;;;;;4991352;28;20274;-81
2023/05/25 04:44:30;;;;;;;35.50;19.88;;;;;;;;;;4972408;28;20046;-80
2023/05/25 04:46:58;;;;;;;30.77;20.73;;;;;;;;;;4968235;28;20064;-80
2023/05/25 04:49:32;;;;;;;29.17;20.02;;;;;;;;;;4968427;28;20363;-80
2023/05/25 04:51:59;;;;;;;30.60;20.75;;;;;;;;;;5011246;28;20110;-80
2023/05/25 04:54:27;;;;;;;38.72;22.25;;;;;;;;;;4992794;28;20072;-82
2023/05/25 04:56:56;;;;;;;31.85;21.45;;;;;;;;;;4982030;28;20018;-82
2023/05/25 04:59:22;;;;;;;32.95;21.70;;;;;;;;;;4994885;28;20056;-80
2023/05/25 05:01:48;;;;;;;34.05;22.48;;;;;;;;;;4988490;28;20041;-81
2023/05/25 05:04:17;;;;;;;29.08;20.75;;;;;;;;;;5003546;28;20042;-80
2023/05/25 05:06:44;;;;;;;23.45;20.65;;;;;;;;;;4981313;28;20081;-80
2023/05/25 05:09:16;;;;;;;29.48;24.17;;;;;;;;;;4982065;28;20046;-79
2023/05/25 05:11:43;;;;;;;38.70;26.23;;;;;;;;;;4943485;28;20092;-76
2023/05/25 05:14:09;;;;;;;36.10;26.55;;;;;;;;;;4958203;28;20030;-81
2023/05/25 05:16:36;;;;;;;35.50;25.00;;;;;;;;;;4963112;28;20053;-80
2023/05/25 05:19:03;;;;;;;37.92;25.17;;;;;;;;;;4974537;28;20096;-79
2023/05/25 05:21:31;;;;;;;45.97;24.95;;;;;;;;;;4977793;28;20073;-78
2023/05/25 05:23:57;;;;;;;45.83;25.98;;;;;;;;;;4956420;28;20503;-80
2023/05/25 05:26:23;;;;;;;43.00;25.52;;;;;;;;;;4944100;28;20050;-76
2023/05/25 05:28:51;;;;;;;32.88;26.00;;;;;;;;;;4976403;28;20048;-79
2023/05/25 05:31:18;;;;;;;36.72;25.17;;;;;;;;;;4980669;28;20168;-78
2023/05/25 05:33:44;;;;;;;35.05;25.50;;;;;;;;;;4946839;28;20062;-79
2023/05/25 05:36:10;;;;;;;40.33;26.45;;;;;;;;;;4979835;28;20150;-80
2023/05/25 05:38:40;;;;;;;36.38;25.30;;;;;;;;;;4978700;28;20121;-80
2023/05/25 05:41:12;;;;;;;39.50;24.65;;;;;;;;;;4962659;28;20442;-80
2023/05/25 05:43:40;;;;;;;34.70;24.48;;;;;;;;;;4975007;28;20154;-80
2023/05/25 05:46:08;;;;;;;34.67;25.30;;;;;;;;;;4979156;28;20596;-81
2023/05/25 05:48:34;;;;;;;38.33;24.27;;;;;;;;;;5002787;28;20117;-73
2023/05/25 05:51:00;;;;;;;26.65;22.88;;;;;;;;;;4995197;28;20053;-72
2023/05/25 05:53:26;;;;;;;26.20;23.38;;;;;;;;;;5012597;28;20151;-75
2023/05/25 05:55:57;;;;;;;30.60;23.33;;;;;;;;;;4994832;28;20045;-74
2023/05/25 05:58:27;;;;;;;35.33;24.65;;;;;;;;;;4995181;28;20042;-72
2023/05/25 06:00:53;;;;;;;31.90;22.83;;;;;;;;;;4978905;28;20045;-74
2023/05/25 06:03:19;;;;;;;28.13;22.35;;;;;;;;;;4975448;28;20470;-75
2023/05/25 06:05:45;;;;;;;28.00;21.88;;;;;;;;;;4992073;28;20174;-75
2023/05/25 06:08:12;;;;;;;27.83;21.33;;;;;;;;;;4975679;28;20104;-79
2023/05/25 06:10:38;;;;;;;25.70;22.08;;;;;;;;;;4943449;28;20514;-75
2023/05/25 06:13:08;;;;;;;34.15;22.80;;;;;;;;;;4976220;28;20057;-73
2023/05/25 06:15:34;;;;;;;34.72;23.85;;;;;;;;;;4992417;28;20054;-75
2023/05/25 06:18:03;;;;;;;32.60;24.20;;;;;;;;;;4976168;28;20577;-76
2023/05/25 06:20:31;;;;;;;28.73;23.33;;;;;;;;;;4958991;28;20073;-77
2023/05/25 06:22:57;;;;;;;23.67;20.95;;;;;;;;;;4959515;28;20458;-77
2023/05/25 06:25:23;;;;;;;31.60;25.50;;;;;;;;;;4958981;28;20417;-76
2023/05/25 06:27:50;;;;;;;28.48;24.23;;;;;;;;;;4975724;28;20097;-78
2023/05/25 06:30:16;;;;;;;31.92;24.08;;;;;;;;;;5002066;28;20070;-78
2023/05/25 06:32:42;;;;;;;31.58;26.15;;;;;;;;;;4976101;28;20053;-76
2023/05/25 06:35:13;;;;;;;29.58;26.42;;;;;;;;;;4959096;28;20065;-77
2023/05/25 06:37:39;;;;;;;42.22;29.60;;;;;;;;;;4993145;28;20046;-77
2023/05/25 06:40:10;;;;;;;41.53;28.77;;;;;;;;;;4975409;28;20042;-74
2023/05/25 06:42:36;;;;;;;36.25;31.25;;;;;;;;;;4974699;28;20053;-74
2023/05/25 06:45:03;;;;;;;35.55;30.10;;;;;;;;;;4975355;28;20057;-76
2023/05/25 06:47:29;;;;;;;38.17;30.50;;;;;;;;;;4992505;28;20041;-77
2023/05/25 06:49:56;;;;;;;40.03;33.03;;;;;;;;;;4978677;28;20497;-78
2023/05/25 06:52:21;;;;;;;46.42;35.63;;;;;;;;;;5012168;28;20406;-76
2023/05/25 06:54:47;;;;;;;42.72;34.60;;;;;;;;;;5011731;28;20049;-75
2023/05/25 06:57:13;;;;;;;45.97;36.00;;;;;;;;;;4994281;28;20388;-76
2023/05/25 06:59:40;;;;;;;41.58;37.15;;;;;;;;;;4957196;28;20073;-74
2023/05/25 07:02:06;;;;;;;44.08;35.40;;;;;;;;;;4974709;28;20042;-76
2023/05/25 07:04:33;;;;;;;51.17;37.05;;;;;;;;;;4974511;28;20219;-76
2023/05/25 07:06:59;;;;;;;45.05;38.05;;;;;;;;;;4974162;28;20141;-75
2023/05/25 07:09:25;;;;;;;45.97;37.28;;;;;;;;;;4958477;28;20503;-75
2023/05/25 07:11:51;;;;;;;46.65;37.25;;;;;;;;;;4972570;28;20042;-74
2023/05/25 07:14:17;;;;;;;41.55;35.97;;;;;;;;;;4970526;28;20046;-72
2023/05/25 07:16:43;;;;;;;43.90;36.22;;;;;;;;;;4990125;28;20042;-73
2023/05/25 07:19:10;;;;;;;44.85;35.83;;;;;;;;;;4955964;28;20049;-73
2023/05/25 07:21:36;;;;;;;39.50;34.88;;;;;;;;;;4956723;28;20054;-72
2023/05/25 07:24:02;;;;;;;35.35;31.60;;;;;;;;;;4973395;28;20133;-76
2023/05/25 07:26:32;;;;;;;42.97;34.88;;;;;;;;;;5049878;22;20060;-73
2023/05/25 07:28:58;;;;;;;43.45;34.95;;;;;;;;;;5048693;28;20122;-73
2023/05/25 07:31:24;;;;;;;37.65;33.53;;;;;;;;;;5032403;28;20052;-74
2023/05/25 07:33:50;;;;;;;40.00;34.58;;;;;;;;;;5050363;28;20037;-74
2023/05/25 07:36:16;;;;;;;38.67;34.55;;;;;;;;;;5032482;28;20045;-75
2023/05/25 07:38:42;;;;;;;46.97;36.92;;;;;;;;;;5049935;28;20047;-75
2023/05/25 07:41:09;;;;;;;41.30;36.42;;;;;;;;;;5049180;28;20135;-78
2023/05/25 07:43:36;;;;;;;45.35;38.35;;;;;;;;;;5048773;28;20033;-75
2023/05/25 07:46:02;;;;;;;50.97;39.63;;;;;;;;;;5050054;28;20056;-75
2023/05/25 07:48:28;;;;;;;50.40;39.53;;;;;;;;;;5043073;28;20037;-75
2023/05/25 07:50:54;;;;;;;56.35;41.63;;;;;;;;;;5031633;28;20576;-73
2023/05/25 07:53:20;;;;;;;54.65;39.25;;;;;;;;;;5049822;28;20037;-75
2023/05/25 07:55:46;;;;;;;48.28;39.88;;;;;;;;;;5032296;28;20045;-74
2023/05/25 07:58:12;;;;;;;49.47;40.65;;;;;;;;;;5049990;28;20930;-75
2023/05/25 08:00:38;;;;;;;53.10;41.45;;;;;;;;;;5049851;28;20127;-75
2023/05/25 08:03:04;;;;;;;53.38;42.08;;;;;;;;;;5031915;28;20049;-74
2023/05/25 08:05:30;;;;;;;52.45;40.78;;;;;;;;;;5015580;28;20049;-74
2023/05/25 08:07:56;;;;;;;58.75;42.75;;;;;;;;;;5049908;28;20047;-74
2023/05/25 08:10:22;;;;;;;54.72;41.38;;;;;;;;;;5031796;28;20048;-74
2023/05/25 08:12:48;;;;;;;52.95;40.55;;;;;;;;;;5032171;28;20268;-75
2023/05/25 08:15:14;;;;;;;50.35;41.40;;;;;;;;;;5049729;28;20040;-75
2023/05/25 08:17:40;;;;;;;57.47;41.22;;;;;;;;;;5049489;28;20047;-75
2023/05/25 08:20:07;;;;;;;58.25;42.60;;;;;;;;;;5049898;28;20033;-74
2023/05/25 08:22:34;;;;;;;56.92;43.45;;;;;;;;;;5049519;28;20132;-78
2023/05/25 08:24:59;;;;;;;64.07;47.15;;;;;;;;;;5050475;28;20527;-81
2023/05/25 08:27:25;;;;;;;62.35;46.58;;;;;;;;;;5040374;28;20065;-82
2023/05/25 08:29:52;;;;;;;58.28;46.63;;;;;;;;;;5033875;28;20540;-81
2023/05/25 08:32:18;;;;;;;55.22;45.30;;;;;;;;;;5033852;28;20045;-82
2023/05/25 08:34:43;;;;;;;58.13;44.67;;;;;;;;;;5031777;28;20538;-81
2023/05/25 08:37:09;;;;;;;56.38;44.13;;;;;;;;;;5030078;28;20552;-78
2023/05/25 08:39:35;;;;;;;62.35;45.30;;;;;;;;;;5011984;28;20041;-77
2023/05/25 08:42:02;;;;;;;50.00;41.33;;;;;;;;;;5029478;28;20049;-75
2023/05/25 08:44:28;;;;;;;56.00;41.55;;;;;;;;;;5011583;28;20460;-77
2023/05/25 08:46:55;;;;;;;51.75;42.25;;;;;;;;;;5009834;28;20590;-77
2023/05/25 08:49:21;;;;;;;60.85;43.83;;;;;;;;;;5029560;28;20521;-79
2023/05/25 08:51:48;;;;;;;56.33;42.25;;;;;;;;;;5030204;28;20041;-79
2023/05/25 08:54:16;;;;;;;50.08;41.13;;;;;;;;;;5033346;28;20037;-80
2023/05/25 08:56:51;;;;;;;51.60;43.38;;;;;;;;;;5012500;28;20130;-81
2023/05/25 08:59:28;;;;;;;48.75;41.83;;;;;;;;;;5031363;28;20417;-81
2023/05/25 09:01:57;;;;;;;47.60;39.63;;;;;;;;;;5034444;28;20320;-80
2023/05/25 09:04:23;;;;;;;48.80;40.45;;;;;;;;;;5016240;28;20038;-81
2023/05/25 09:06:50;;;;;;;47.17;37.90;;;;;;;;;;5034614;28;20444;-82
2023/05/25 09:09:16;;;;;;;45.17;39.92;;;;;;;;;;5018887;28;20660;-82
2023/05/25 09:11:42;;;;;;;43.33;36.03;;;;;;;;;;5035364;28;20682;-82
2023/05/25 09:14:08;;;;;;;43.78;35.85;;;;;;;;;;5034604;28;20033;-81
2023/05/25 09:16:35;;;;;;;44.28;36.30;;;;;;;;;;5033952;28;20046;-82
2023/05/25 09:19:01;;;;;;;39.40;35.40;;;;;;;;;;5034456;28;20033;-82
2023/05/25 09:21:27;;;;;;;43.80;39.10;;;;;;;;;;5034629;28;20061;-83
2023/05/25 09:23:53;;;;;;;42.38;37.90;;;;;;;;;;5017518;28;20041;-82
2023/05/25 09:26:19;;;;;;;46.03;38.42;;;;;;;;;;5035612;28;20123;-83
2023/05/25 09:28:46;;;;;;;42.08;37.30;;;;;;;;;;5034550;28;20132;-78
2023/05/25 09:31:13;;;;;;;40.85;36.50;;;;;;;;;;5033078;28;20509;-80
2023/05/25 09:33:39;;;;;;;37.13;33.28;;;;;;;;;;4998765;28;20037;-80
2023/05/25 09:36:05;;;;;;;37.95;33.90;;;;;;;;;;5015452;28;20053;-81
2023/05/25 09:38:31;;;;;;;37.50;33.45;;;;;;;;;;5032893;28;20552;-80
2023/05/25 09:40:58;;;;;;;38.42;34.22;;;;;;;;;;4998892;28;20049;-80
2023/05/25 09:43:24;;;;;;;35.35;31.65;;;;;;;;;;5015201;28;20033;-81
2023/05/25 09:45:53;;;;;;;36.78;32.90;;;;;;;;;;5032835;28;20045;-79
2023/05/25 09:48:20;;;;;;;37.15;33.33;;;;;;;;;;5028449;28;20049;-80
2023/05/25 09:50:46;;;;;;;42.35;36.35;;;;;;;;;;5032660;28;20139;-79
2023/05/25 09:53:12;;;;;;;38.00;33.97;;;;;;;;;;5033877;28;20049;-80
2023/05/25 09:55:38;;;;;;;29.05;26.23;;;;;;;;;;5033641;28;20091;-81
2023/05/25 09:58:04;;;;;;;31.17;28.17;;;;;;;;;;5034855;28;20039;-82
2023/05/25 10:00:31;;;;;;;25.60;22.10;;;;;;;;;;5034684;28;20046;-81
2023/05/25 10:02:57;;;;;;;23.80;21.52;;;;;;;;;;5034805;28;20481;-79
2023/05/25 10:05:23;;;;;;;25.67;22.70;;;;;;;;;;4998213;28;20412;-79
2023/05/25 10:07:49;;;;;;;25.88;23.63;;;;;;;;;;5035885;28;20045;-77
2023/05/25 10:10:15;;;;;;;26.42;23.52;;;;;;;;;;5015435;28;20073;-78
2023/05/25 10:12:42;;;;;;;25.90;22.95;;;;;;;;;;5032170;28;20544;-79
2023/05/25 10:15:08;;;;;;;28.45;25.52;;;;;;;;;;5014500;28;20121;-78
2023/05/25 10:17:34;;;;;;;30.65;27.63;;;;;;;;;;5014377;28;20095;-78
2023/05/25 10:20:00;;;;;;;28.52;25.85;;;;;;;;;;5014372;28;20038;-77
2023/05/25 10:22:38;;;;;;;29.08;26.27;;;;;;;;;;5014077;28;20079;-77
2023/05/25 10:25:20;;;;;;;30.27;25.60;;;;;;;;;;5014110;28;20045;-76
2023/05/25 10:27:47;;;;;;;29.20;26.08;;;;;;;;;;5013621;28;20543;-76
2023/05/25 10:30:13;;;;;;;36.60;30.27;;;;;;;;;;5031623;28;20041;-76
2023/05/25 10:32:39;;;;;;;37.00;29.38;;;;;;;;;;5031293;28;20063;-77
2023/05/25 10:35:06;;;;;;;35.20;29.85;;;;;;;;;;4995789;28;20042;-73
2023/05/25 10:37:32;;;;;;;34.05;29.40;;;;;;;;;;5032705;28;20076;-77
2023/05/25 10:39:58;;;;;;;35.95;32.20;;;;;;;;;;5015896;28;20037;-78
2023/05/25 10:42:24;;;;;;;44.38;32.33;;;;;;;;;;5017185;28;20045;-78
2023/05/25 10:44:50;;;;;;;41.70;32.88;;;;;;;;;;5024219;28;20087;-77
2023/05/25 10:47:16;;;;;;;46.05;36.15;;;;;;;;;;5027445;28;20486;-77
2023/05/25 10:49:58;;;;;;;49.17;38.63;;;;;;;;;;5038565;28;20051;-78
2023/05/25 10:52:27;;;;;;;50.33;39.35;;;;;;;;;;5015150;28;20551;-78
2023/05/25 10:54:54;;;;;;;45.45;37.15;;;;;;;;;;5031440;28;20037;-77
2023/05/25 10:57:20;;;;;;;53.65;40.00;;;;;;;;;;4997424;28;20045;-78
2023/05/25 10:59:47;;;;;;;48.63;39.90;;;;;;;;;;5031257;28;20096;-78
2023/05/25 11:02:14;;;;;;;48.33;38.08;;;;;;;;;;5013683;28;20041;-77
2023/05/25 11:04:40;;;;;;;48.50;37.95;;;;;;;;;;5030849;28;20132;-78
2023/05/25 11:07:12;;;;;;;49.03;37.47;;;;;;;;;;5030896;28;20351;-77
2023/05/25 11:09:39;;;;;;;43.38;35.88;;;;;;;;;;5030937;28;20052;-78
2023/05/25 11:12:06;;;;;;;42.13;35.70;;;;;;;;;;5029066;28;20041;-78
2023/05/25 11:14:32;;;;;;;46.88;36.78;;;;;;;;;;5031105;28;20037;-79
2023/05/25 11:17:13;;;;;;;46.83;36.72;;;;;;;;;;5013297;28;20528;-80
2023/05/25 11:19:43;;;;;;;43.20;34.17;;;;;;;;;;5030876;28;20156;-78
2023/05/25 11:22:12;;;;;;;53.33;34.38;;;;;;;;;;5030091;28;20120;-80
2023/05/25 11:24:38;;;;;;;50.97;39.65;;;;;;;;;;5031622;28;20044;-78
2023/05/25 11:27:04;;;;;;;50.88;40.47;;;;;;;;;;5032431;28;20436;-77
2023/05/25 11:29:30;;;;;;;51.25;35.95;;;;;;;;;;5038744;28;20046;-76
2023/05/25 11:31:58;;;;;;;46.40;36.55;;;;;;;;;;5044863;28;20097;-76
2023/05/25 11:34:27;;;;;;;41.20;30.63;;;;;;;;;;5040437;28;20519;-78
2023/05/25 11:36:54;;;;;;;36.75;30.08;;;;;;;;;;5031351;28;20037;-76
2023/05/25 11:39:23;;;;;;;34.65;28.67;;;;;;;;;;5030611;28;20467;-76
2023/05/25 11:42:01;;;;;;;30.80;27.60;;;;;;;;;;5028744;28;20120;-76
2023/05/25 11:44:28;;;;;;;31.13;26.08;;;;;;;;;;5030730;28;20272;-77
2023/05/25 11:46:57;;;;;;;29.60;25.85;;;;;;;;;;5032706;28;20072;-80
2023/05/25 11:49:24;;;;;;;31.23;26.37;;;;;;;;;;5031633;28;20049;-78
2023/05/25 11:51:50;;;;;;;31.45;25.92;;;;;;;;;;5030869;28;21047;-79
2023/05/25 11:54:20;;;;;;;30.63;26.95;;;;;;;;;;5029880;28;20045;-73
2023/05/25 11:56:46;;;;;;;31.00;27.75;;;;;;;;;;5029798;28;20060;-73
2023/05/25 11:59:12;;;;;;;31.27;26.75;;;;;;;;;;5027694;28;20509;-73
2023/05/25 12:01:38;;;;;;;27.02;24.15;;;;;;;;;;4994868;28;20409;-73
2023/05/25 12:04:07;;;;;;;30.08;24.63;;;;;;;;;;4995264;28;20040;-72
2023/05/25 12:06:35;;;;;;;26.42;23.70;;;;;;;;;;5011553;28;20084;-73
2023/05/25 12:09:01;;;;;;;29.38;23.95;;;;;;;;;;5026427;28;20042;-72
2023/05/25 12:11:27;;;;;;;33.70;23.27;;;;;;;;;;5011615;28;20037;-71
2023/05/25 12:13:53;;;;;;;30.33;23.58;;;;;;;;;;5027145;28;20044;-75
2023/05/25 12:16:19;;;;;;;26.75;22.73;;;;;;;;;;5029483;28;20041;-72
2023/05/25 12:18:45;;;;;;;25.55;22.92;;;;;;;;;;5029037;28;20042;-71
2023/05/25 12:21:11;;;;;;;24.10;21.30;;;;;;;;;;5012182;28;20128;-74
2023/05/25 12:23:37;;;;;;;29.73;25.60;;;;;;;;;;5011789;28;20136;-73
2023/05/25 12:26:07;;;;;;;25.75;22.58;;;;;;;;;;5008874;28;20144;-73
2023/05/25 12:28:34;;;;;;;26.20;23.02;;;;;;;;;;4993716;28;20057;-72
2023/05/25 12:31:18;;;;;;;24.67;21.88;;;;;;;;;;5005796;28;20041;-73
2023/05/25 12:33:44;;;;;;;23.98;20.50;;;;;;;;;;5003300;28;20060;-73
2023/05/25 12:36:10;;;;;;;21.52;19.42;;;;;;;;;;5018120;28;20044;-73
2023/05/25 12:38:36;;;;;;;22.38;20.13;;;;;;;;;;5019038;28;20068;-73
2023/05/25 12:41:08;;;;;;;21.58;19.52;;;;;;;;;;5000699;28;20584;-74
2023/05/25 12:43:41;;;;;;;21.65;19.50;;;;;;;;;;5017751;28;20127;-74
2023/05/25 12:46:07;;;;;;;18.92;17.13;;;;;;;;;;4980210;28;20139;-73
2023/05/25 12:48:33;;;;;;;18.50;16.60;;;;;;;;;;5002275;28;20042;-73
2023/05/25 12:51:00;;;;;;;19.95;18.13;;;;;;;;;;4999920;28;20636;-73
2023/05/25 12:53:27;;;;;;;18.33;16.65;;;;;;;;;;5002633;28;20391;-73
2023/05/25 12:55:59;;;;;;;20.25;18.27;;;;;;;;;;5019421;28;20532;-73
2023/05/25 12:58:26;;;;;;;18.77;16.85;;;;;;;;;;5014734;28;20582;-73
2023/05/25 13:00:52;;;;;;;20.95;18.73;;;;;;;;;;5014600;28;20034;-72
2023/05/25 13:03:18;;;;;;;24.45;20.20;;;;;;;;;;5026025;28;20073;-71
2023/05/25 13:05:45;;;;;;;26.77;21.27;;;;;;;;;;5019555;28;20046;-73
2023/05/25 13:08:11;;;;;;;28.73;22.23;;;;;;;;;;5019450;28;20041;-72
2023/05/25 13:10:37;;;;;;;21.75;19.55;;;;;;;;;;5020767;28;20048;-73
2023/05/25 13:13:03;;;;;;;23.08;20.83;;;;;;;;;;5008366;28;20563;-73
2023/05/25 13:15:29;;;;;;;22.80;20.80;;;;;;;;;;5017264;28;20038;-73
2023/05/25 13:17:56;;;;;;;28.35;22.23;;;;;;;;;;5013210;28;20478;-73
2023/05/25 13:20:26;;;;;;;33.83;22.63;;;;;;;;;;5028240;28;20048;-75
2023/05/25 13:22:52;;;;;;;27.33;22.63;;;;;;;;;;5000247;28;20113;-75
2023/05/25 13:25:20;;;;;;;25.00;22.33;;;;;;;;;;4986055;28;20084;-75
2023/05/25 13:27:48;;;;;;;25.30;22.67;;;;;;;;;;5006399;28;20045;-74
2023/05/25 13:30:14;;;;;;;26.92;22.88;;;;;;;;;;4983564;28;20033;-76
2023/05/25 13:32:43;;;;;;;25.30;22.63;;;;;;;;;;5023621;28;20044;-73
2023/05/25 13:35:18;;;;;;;25.67;23.15;;;;;;;;;;5018525;28;20040;-73
2023/05/25 13:37:44;;;;;;;25.77;23.23;;;;;;;;;;5003228;28;20421;-74
2023/05/25 13:40:11;;;;;;;27.45;24.60;;;;;;;;;;5014514;28;20099;-74
2023/05/25 13:42:37;;;;;;;26.45;23.77;;;;;;;;;;5021677;28;20452;-73
2023/05/25 13:45:03;;;;;;;26.58;23.77;;;;;;;;;;5017285;28;20037;-74
2023/05/25 13:47:31;;;;;;;33.05;25.17;;;;;;;;;;5023305;28;20049;-73
2023/05/25 13:49:57;;;;;;;31.02;23.60;;;;;;;;;;5012631;28;20476;-75
2023/05/25 13:52:23;;;;;;;29.45;24.10;;;;;;;;;;5017446;28;20044;-73
2023/05/25 13:54:49;;;;;;;26.02;23.35;;;;;;;;;;5024322;28;20045;-74
2023/05/25 13:57:15;;;;;;;29.65;25.83;;;;;;;;;;5020432;28;20041;-75
2023/05/25 13:59:41;;;;;;;43.00;33.15;;;;;;;;;;5022835;28;20054;-76
2023/05/25 14:02:07;;;;;;;55.95;40.47;;;;;;;;;;5014567;28;20058;-75
2023/05/25 14:04:33;;;;;;;43.85;34.85;;;;;;;;;;5021294;28;20060;-76
2023/05/25 14:07:00;;;;;;;50.03;35.03;;;;;;;;;;5023311;28;20050;-75
2023/05/25 14:09:26;;;;;;;30.85;22.95;;;;;;;;;;5005591;28;20041;-75
2023/05/25 14:11:52;;;;;;;31.17;24.38;;;;;;;;;;5020919;28;20490;-74
2023/05/25 14:14:18;;;;;;;29.48;24.67;;;;;;;;;;5014461;28;20103;-76
2023/05/25 14:16:44;;;;;;;29.10;25.55;;;;;;;;;;5019930;28;20445;-74